Weather Data

Pearl Creek Farm: 8878 N Farm Road 75, Walnut Grove MO 65770

<== Previous Day (Friday 25 Aug 2017) | Next Day (Sunday 27 Aug 2017) ==>

Summary Precipitation Data For Saturday 26 August 2017

ElementValueUnits
PrecipitationT
Notes(none)
SourcePearl Creek Farm

Summary Temperature Data For Saturday 26 August 2017

ElementValueUnits
High Temperature80 oF
Low Temperature65 oF
Average Temperature72 oF
High Humidity90 %
Low Humidity54 %
Average Humidity72 %
SourceSpringfield-Branson National Airport (SGF)

Detail Temperature Data For Saturday 26 August 2017

Date / TimeTemp (F)RH (%)Dew Pt (F)Report Date / TimeSource
2017-08-26 00:52:00 69 78 62.0 2017-12-29 17:00:26.17417 Springfield-Branson National Airport (SGF)
2017-08-26 01:52:00 68 78 61.0 2017-12-29 17:00:26.17417 Springfield-Branson National Airport (SGF)
2017-08-26 02:52:00 68 78 61.0 2017-12-29 17:00:26.17417 Springfield-Branson National Airport (SGF)
2017-08-26 03:52:00 68 76 60.0 2017-12-29 17:00:26.17417 Springfield-Branson National Airport (SGF)
2017-08-26 04:52:00 67 79 60.0 2017-12-29 17:00:26.17417 Springfield-Branson National Airport (SGF)
2017-08-26 05:52:00 67 79 60.0 2017-12-29 17:00:26.17417 Springfield-Branson National Airport (SGF)
2017-08-26 06:52:00 68 76 60.0 2017-12-29 17:00:26.17417 Springfield-Branson National Airport (SGF)
2017-08-26 07:52:00 70 73 61.0 2017-12-29 17:00:26.17417 Springfield-Branson National Airport (SGF)
2017-08-26 08:52:00 72 66 60.0 2017-12-29 17:00:26.17417 Springfield-Branson National Airport (SGF)
2017-08-26 09:52:00 73 66 61.0 2017-12-29 17:00:26.17417 Springfield-Branson National Airport (SGF)
2017-08-26 10:52:00 74 67 62.0 2017-12-29 17:00:26.17417 Springfield-Branson National Airport (SGF)
2017-08-26 11:52:00 75 66 63.0 2017-12-29 17:00:26.17417 Springfield-Branson National Airport (SGF)
2017-08-26 12:52:00 79 60 64.0 2017-12-29 17:00:26.17417 Springfield-Branson National Airport (SGF)
2017-08-26 13:52:00 80 58 64.0 2017-12-29 17:00:26.17417 Springfield-Branson National Airport (SGF)
2017-08-26 14:52:00 80 58 64.0 2017-12-29 17:00:26.17417 Springfield-Branson National Airport (SGF)
2017-08-26 15:52:00 80 54 62.0 2017-12-29 17:00:26.17417 Springfield-Branson National Airport (SGF)
2017-08-26 16:52:00 79 58 63.0 2017-12-29 17:00:26.17417 Springfield-Branson National Airport (SGF)
2017-08-26 17:52:00 77 66 65.0 2017-12-29 17:00:26.17417 Springfield-Branson National Airport (SGF)
2017-08-26 18:52:00 74 71 64.0 2017-12-29 17:00:26.17417 Springfield-Branson National Airport (SGF)
2017-08-26 19:52:00 70 79 63.0 2017-12-29 17:00:26.17417 Springfield-Branson National Airport (SGF)
2017-08-26 20:52:00 69 78 62.0 2017-12-29 17:00:26.17417 Springfield-Branson National Airport (SGF)
2017-08-26 21:52:00 67 84 62.0 2017-12-29 17:00:26.17417 Springfield-Branson National Airport (SGF)
2017-08-26 22:52:00 65 90 62.0 2017-12-29 17:00:26.17417 Springfield-Branson National Airport (SGF)
2017-08-26 23:52:00 66 87 62.0 2017-12-29 17:00:26.17417 Springfield-Branson National Airport (SGF)

A total of 24 rows are displayed.